This is the latest recevied weather packets stored in our database for station/object KO5MO-11. If no packets are shown the sender has not sent any weather packets the latest 10 day(s).
| Time | Temp. | Humidity | Pressure | Rain* | Wind** | Luminosity | Snow |
|---|---|---|---|---|---|---|---|
| 1777623655 | 24.44° C | 36% | 1007 hPa | - | - | 764 W/m² | - |
| 1777623055 | 24.44° C | 35% | 1007.1 hPa | - | - | 768 W/m² | - |
| 1777622455 | 26.11° C | 35% | 1007.1 hPa | - | - | 793 W/m² | - |
| 1777621855 | 23.89° C | 36% | 1007.1 hPa | - | - | 759 W/m² | - |
| 1777621255 | 24.44° C | 36% | 1007.1 hPa | - | - | 768 W/m² | - |
| 1777620655 | 25° C | 34% | 1007.1 hPa | - | - | 777 W/m² | - |
| 1777620056 | 25.56° C | 36% | 1007.1 hPa | - | - | 783 W/m² | - |
| 1777619455 | 24.44° C | 36% | 1007 hPa | - | - | 762 W/m² | - |
| 1777618855 | 25° C | 35% | 1006.9 hPa | - | - | 771 W/m² | - |
| 1777618255 | 26.11° C | 36% | 1007 hPa | - | - | 790 W/m² | - |
| 1777617656 | 23.33° C | 37% | 1006.8 hPa | - | - | 749 W/m² | - |
| 1777617056 | 23.89° C | 36% | 1006.6 hPa | - | - | 753 W/m² | - |
| 1777616456 | 25.56° C | 34% | 1006.4 hPa | - | - | 785 W/m² | - |
| 1777615856 | 25° C | 38% | 1006.3 hPa | - | - | 779 W/m² | - |
| 1777615255 | 23.89° C | 36% | 1006.3 hPa | - | - | 750 W/m² | - |
| 1777614655 | 23.89° C | 35% | 1006.2 hPa | - | - | 757 W/m² | - |
| 1777614055 | 26.11° C | 34% | 1006.2 hPa | - | - | 796 W/m² | - |
| 1777613455 | 25° C | 39% | 1005.9 hPa | - | - | 778 W/m² | - |
| 1777612855 | 23.89° C | 36% | 1005.7 hPa | - | - | 750 W/m² | - |
| 1777612255 | 23.89° C | 36% | 1005.4 hPa | - | - | 754 W/m² | - |
| 1777611655 | 26.67° C | 34% | 1005.4 hPa | - | - | 801 W/m² | - |
| 1777611055 | 25° C | 39% | 1005.2 hPa | - | - | 776 W/m² | - |
| 1777610456 | 23.33° C | 36% | 1004.9 hPa | - | - | 748 W/m² | - |
| 1777609855 | 23.89° C | 36% | 1004.7 hPa | - | - | 755 W/m² | - |
| 1777609256 | 26.11° C | 34% | 1004.7 hPa | - | - | 796 W/m² | - |
* Rain since midnight (hover to see other rain measurements)
** Current wind speed in m/s (hover to see current wind gust speed)